sensor_id;sensor_type;location;lat;lon;timestamp;temperature;humidity
36446;DHT22;22472;50.848;-1.216;2022-10-16T00:01:05;14.00;99.90
36446;DHT22;22472;50.848;-1.216;2022-10-16T00:03:33;14.00;99.90
36446;DHT22;22472;50.848;-1.216;2022-10-16T00:06:00;14.10;99.90
36446;DHT22;22472;50.848;-1.216;2022-10-16T00:08:28;14.10;99.90
36446;DHT22;22472;50.848;-1.216;2022-10-16T00:10:59;14.10;99.90
36446;DHT22;22472;50.848;-1.216;2022-10-16T00:13:27;14.00;99.90
36446;DHT22;22472;50.848;-1.216;2022-10-16T00:15:56;14.10;99.90
36446;DHT22;22472;50.848;-1.216;2022-10-16T00:18:26;14.10;99.90
36446;DHT22;22472;50.848;-1.216;2022-10-16T00:20:54;14.10;99.90
36446;DHT22;22472;50.848;-1.216;2022-10-16T00:23:22;14.10;99.90
36446;DHT22;22472;50.848;-1.216;2022-10-16T00:25:56;14.10;99.90
36446;DHT22;22472;50.848;-1.216;2022-10-16T00:28:23;14.10;99.90
36446;DHT22;22472;50.848;-1.216;2022-10-16T00:30:52;14.10;99.90
36446;DHT22;22472;50.848;-1.216;2022-10-16T00:33:20;14.10;99.90
36446;DHT22;22472;50.848;-1.216;2022-10-16T00:35:47;14.10;99.90
36446;DHT22;22472;50.848;-1.216;2022-10-16T00:38:15;14.20;99.90
36446;DHT22;22472;50.848;-1.216;2022-10-16T00:40:42;14.20;99.90
36446;DHT22;22472;50.848;-1.216;2022-10-16T00:43:13;14.30;99.90
36446;DHT22;22472;50.848;-1.216;2022-10-16T00:45:41;14.30;99.90
36446;DHT22;22472;50.848;-1.216;2022-10-16T00:48:12;14.30;99.90
36446;DHT22;22472;50.848;-1.216;2022-10-16T00:50:40;14.40;99.90
36446;DHT22;22472;50.848;-1.216;2022-10-16T00:53:10;14.40;99.90
36446;DHT22;22472;50.848;-1.216;2022-10-16T00:55:38;14.30;99.90
36446;DHT22;22472;50.848;-1.216;2022-10-16T00:58:05;14.10;99.90
36446;DHT22;22472;50.848;-1.216;2022-10-16T01:00:32;13.80;99.90
36446;DHT22;22472;50.848;-1.216;2022-10-16T01:03:01;13.70;99.90
36446;DHT22;22472;50.848;-1.216;2022-10-16T01:05:34;13.50;99.90
36446;DHT22;22472;50.848;-1.216;2022-10-16T01:08:09;13.50;99.90
36446;DHT22;22472;50.848;-1.216;2022-10-16T01:10:41;13.40;99.90
36446;DHT22;22472;50.848;-1.216;2022-10-16T01:13:14;13.30;99.90
36446;DHT22;22472;50.848;-1.216;2022-10-16T01:15:48;13.30;99.90
36446;DHT22;22472;50.848;-1.216;2022-10-16T01:18:23;13.30;99.90
36446;DHT22;22472;50.848;-1.216;2022-10-16T01:20:56;13.30;99.90
36446;DHT22;22472;50.848;-1.216;2022-10-16T01:23:33;13.30;99.90
36446;DHT22;22472;50.848;-1.216;2022-10-16T01:26:13;13.20;99.90
36446;DHT22;22472;50.848;-1.216;2022-10-16T01:28:47;13.20;99.90
36446;DHT22;22472;50.848;-1.216;2022-10-16T01:31:19;13.20;99.90
36446;DHT22;22472;50.848;-1.216;2022-10-16T01:33:52;13.10;99.90
36446;DHT22;22472;50.848;-1.216;2022-10-16T01:36:24;13.10;99.90
36446;DHT22;22472;50.848;-1.216;2022-10-16T01:38:55;13.10;99.90
36446;DHT22;22472;50.848;-1.216;2022-10-16T01:41:25;13.00;99.90
36446;DHT22;22472;50.848;-1.216;2022-10-16T01:43:59;13.00;99.90
36446;DHT22;22472;50.848;-1.216;2022-10-16T01:46:28;13.00;99.90
36446;DHT22;22472;50.848;-1.216;2022-10-16T01:48:57;13.00;99.90
36446;DHT22;22472;50.848;-1.216;2022-10-16T01:51:26;13.00;99.90
36446;DHT22;22472;50.848;-1.216;2022-10-16T01:53:57;13.10;99.90
36446;DHT22;22472;50.848;-1.216;2022-10-16T01:56:26;13.20;99.90
36446;DHT22;22472;50.848;-1.216;2022-10-16T01:58:57;13.20;99.90
36446;DHT22;22472;50.848;-1.216;2022-10-16T02:01:29;13.20;99.90
36446;DHT22;22472;50.848;-1.216;2022-10-16T02:04:03;13.30;99.90
36446;DHT22;22472;50.848;-1.216;2022-10-16T02:06:32;13.20;99.90
36446;DHT22;22472;50.848;-1.216;2022-10-16T02:09:00;13.30;99.90
36446;DHT22;22472;50.848;-1.216;2022-10-16T02:11:27;13.20;99.90
36446;DHT22;22472;50.848;-1.216;2022-10-16T02:13:58;13.20;99.90
36446;DHT22;22472;50.848;-1.216;2022-10-16T02:16:33;13.20;99.90
36446;DHT22;22472;50.848;-1.216;2022-10-16T02:19:01;13.20;99.90
36446;DHT22;22472;50.848;-1.216;2022-10-16T02:21:31;13.10;99.90
36446;DHT22;22472;50.848;-1.216;2022-10-16T02:24:03;13.10;99.90
36446;DHT22;22472;50.848;-1.216;2022-10-16T02:26:36;13.10;99.90
36446;DHT22;22472;50.848;-1.216;2022-10-16T02:29:09;13.10;99.90
36446;DHT22;22472;50.848;-1.216;2022-10-16T02:31:41;13.10;99.90
36446;DHT22;22472;50.848;-1.216;2022-10-16T02:34:11;13.10;99.90
36446;DHT22;22472;50.848;-1.216;2022-10-16T02:36:39;13.10;99.90
36446;DHT22;22472;50.848;-1.216;2022-10-16T02:39:08;13.00;99.90
36446;DHT22;22472;50.848;-1.216;2022-10-16T02:41:35;13.00;99.90
36446;DHT22;22472;50.848;-1.216;2022-10-16T02:44:02;13.10;99.90
36446;DHT22;22472;50.848;-1.216;2022-10-16T02:46:31;13.10;99.90
36446;DHT22;22472;50.848;-1.216;2022-10-16T02:48:58;13.10;99.90
36446;DHT22;22472;50.848;-1.216;2022-10-16T02:51:25;13.10;99.90
36446;DHT22;22472;50.848;-1.216;2022-10-16T02:53:52;13.20;99.90
36446;DHT22;22472;50.848;-1.216;2022-10-16T02:56:18;13.20;99.90
36446;DHT22;22472;50.848;-1.216;2022-10-16T02:58:45;13.30;99.90
36446;DHT22;22472;50.848;-1.216;2022-10-16T03:01:13;13.30;99.90
36446;DHT22;22472;50.848;-1.216;2022-10-16T03:03:43;13.30;99.90
36446;DHT22;22472;50.848;-1.216;2022-10-16T03:06:10;13.40;99.90
36446;DHT22;22472;50.848;-1.216;2022-10-16T03:08:37;13.40;99.90
36446;DHT22;22472;50.848;-1.216;2022-10-16T03:11:05;13.40;99.90
36446;DHT22;22472;50.848;-1.216;2022-10-16T03:13:31;13.40;99.90
36446;DHT22;22472;50.848;-1.216;2022-10-16T03:15:59;13.40;99.90
36446;DHT22;22472;50.848;-1.216;2022-10-16T03:18:26;13.40;99.90
36446;DHT22;22472;50.848;-1.216;2022-10-16T03:20:54;13.30;99.90
36446;DHT22;22472;50.848;-1.216;2022-10-16T03:23:21;13.30;99.90
36446;DHT22;22472;50.848;-1.216;2022-10-16T03:25:48;13.30;99.90
36446;DHT22;22472;50.848;-1.216;2022-10-16T03:28:15;13.20;99.90
36446;DHT22;22472;50.848;-1.216;2022-10-16T03:30:43;13.20;99.90
36446;DHT22;22472;50.848;-1.216;2022-10-16T03:33:10;13.10;99.90
36446;DHT22;22472;50.848;-1.216;2022-10-16T03:35:37;13.10;99.90
36446;DHT22;22472;50.848;-1.216;2022-10-16T03:38:05;13.10;99.90
36446;DHT22;22472;50.848;-1.216;2022-10-16T03:40:32;13.10;99.90
36446;DHT22;22472;50.848;-1.216;2022-10-16T03:42:59;13.00;99.90
36446;DHT22;22472;50.848;-1.216;2022-10-16T03:45:27;13.00;99.90
36446;DHT22;22472;50.848;-1.216;2022-10-16T03:47:54;12.90;99.90
36446;DHT22;22472;50.848;-1.216;2022-10-16T03:50:20;12.90;99.90
36446;DHT22;22472;50.848;-1.216;2022-10-16T03:52:47;12.90;99.90
36446;DHT22;22472;50.848;-1.216;2022-10-16T03:55:16;12.90;99.90
36446;DHT22;22472;50.848;-1.216;2022-10-16T03:57:43;12.80;99.90
36446;DHT22;22472;50.848;-1.216;2022-10-16T04:00:11;12.80;99.90
36446;DHT22;22472;50.848;-1.216;2022-10-16T04:02:39;12.80;99.90
36446;DHT22;22472;50.848;-1.216;2022-10-16T04:05:06;12.80;99.90
36446;DHT22;22472;50.848;-1.216;2022-10-16T04:07:34;12.70;99.90
36446;DHT22;22472;50.848;-1.216;2022-10-16T04:10:01;12.70;99.90
36446;DHT22;22472;50.848;-1.216;2022-10-16T04:12:29;12.70;99.90
36446;DHT22;22472;50.848;-1.216;2022-10-16T04:14:56;12.70;99.90
36446;DHT22;22472;50.848;-1.216;2022-10-16T04:17:23;12.60;99.90
36446;DHT22;22472;50.848;-1.216;2022-10-16T04:19:50;12.60;99.90
36446;DHT22;22472;50.848;-1.216;2022-10-16T04:22:17;12.60;99.90
36446;DHT22;22472;50.848;-1.216;2022-10-16T04:24:44;12.70;99.90
36446;DHT22;22472;50.848;-1.216;2022-10-16T04:27:11;12.70;99.90
36446;DHT22;22472;50.848;-1.216;2022-10-16T04:29:40;12.70;99.90
36446;DHT22;22472;50.848;-1.216;2022-10-16T04:32:08;12.70;99.90
36446;DHT22;22472;50.848;-1.216;2022-10-16T04:34:35;12.70;99.90
36446;DHT22;22472;50.848;-1.216;2022-10-16T04:37:03;12.70;99.90
36446;DHT22;22472;50.848;-1.216;2022-10-16T04:39:30;12.80;99.90
36446;DHT22;22472;50.848;-1.216;2022-10-16T04:41:57;12.80;99.90
36446;DHT22;22472;50.848;-1.216;2022-10-16T04:44:24;12.80;99.90
36446;DHT22;22472;50.848;-1.216;2022-10-16T04:46:53;12.80;99.90
36446;DHT22;22472;50.848;-1.216;2022-10-16T04:49:20;12.90;99.90
36446;DHT22;22472;50.848;-1.216;2022-10-16T04:51:46;12.90;99.90
36446;DHT22;22472;50.848;-1.216;2022-10-16T04:54:13;13.00;99.90
36446;DHT22;22472;50.848;-1.216;2022-10-16T04:56:40;13.00;99.90
36446;DHT22;22472;50.848;-1.216;2022-10-16T04:59:13;13.00;99.90
36446;DHT22;22472;50.848;-1.216;2022-10-16T05:01:40;13.00;99.90
36446;DHT22;22472;50.848;-1.216;2022-10-16T05:04:09;13.00;99.90
36446;DHT22;22472;50.848;-1.216;2022-10-16T05:06:36;13.00;99.90
36446;DHT22;22472;50.848;-1.216;2022-10-16T05:09:04;12.90;99.90
36446;DHT22;22472;50.848;-1.216;2022-10-16T05:11:31;12.90;99.90
36446;DHT22;22472;50.848;-1.216;2022-10-16T05:13:58;12.90;99.90
36446;DHT22;22472;50.848;-1.216;2022-10-16T05:16:26;12.90;99.90
36446;DHT22;22472;50.848;-1.216;2022-10-16T05:18:53;12.90;99.90
36446;DHT22;22472;50.848;-1.216;2022-10-16T05:21:21;12.90;99.90
36446;DHT22;22472;50.848;-1.216;2022-10-16T05:23:48;12.90;99.90
36446;DHT22;22472;50.848;-1.216;2022-10-16T05:26:15;12.90;99.90
36446;DHT22;22472;50.848;-1.216;2022-10-16T05:28:42;12.90;99.90
36446;DHT22;22472;50.848;-1.216;2022-10-16T05:31:09;13.00;99.90
36446;DHT22;22472;50.848;-1.216;2022-10-16T05:33:36;13.00;99.90
36446;DHT22;22472;50.848;-1.216;2022-10-16T05:36:04;13.00;99.90
36446;DHT22;22472;50.848;-1.216;2022-10-16T05:38:34;13.00;99.90
36446;DHT22;22472;50.848;-1.216;2022-10-16T05:41:02;13.10;99.90
36446;DHT22;22472;50.848;-1.216;2022-10-16T05:43:29;13.10;99.90
36446;DHT22;22472;50.848;-1.216;2022-10-16T05:45:58;13.10;99.90
36446;DHT22;22472;50.848;-1.216;2022-10-16T05:48:26;13.00;99.90
36446;DHT22;22472;50.848;-1.216;2022-10-16T05:50:57;13.00;99.90
36446;DHT22;22472;50.848;-1.216;2022-10-16T05:53:24;13.10;99.90
36446;DHT22;22472;50.848;-1.216;2022-10-16T05:55:53;13.10;99.90
36446;DHT22;22472;50.848;-1.216;2022-10-16T05:58:21;13.10;99.90
36446;DHT22;22472;50.848;-1.216;2022-10-16T06:00:55;13.10;99.90
36446;DHT22;22472;50.848;-1.216;2022-10-16T06:03:22;13.10;99.90
36446;DHT22;22472;50.848;-1.216;2022-10-16T06:05:49;13.10;99.90
36446;DHT22;22472;50.848;-1.216;2022-10-16T06:08:16;13.10;99.90
36446;DHT22;22472;50.848;-1.216;2022-10-16T06:10:44;13.20;99.90
36446;DHT22;22472;50.848;-1.216;2022-10-16T06:13:12;13.10;99.90
36446;DHT22;22472;50.848;-1.216;2022-10-16T06:15:40;13.10;99.90
36446;DHT22;22472;50.848;-1.216;2022-10-16T06:18:09;13.10;99.90
36446;DHT22;22472;50.848;-1.216;2022-10-16T06:20:36;13.10;99.90
36446;DHT22;22472;50.848;-1.216;2022-10-16T06:23:03;13.10;99.90
36446;DHT22;22472;50.848;-1.216;2022-10-16T06:25:30;13.10;99.90
36446;DHT22;22472;50.848;-1.216;2022-10-16T06:27:57;13.10;99.90
36446;DHT22;22472;50.848;-1.216;2022-10-16T06:30:25;13.10;99.90
36446;DHT22;22472;50.848;-1.216;2022-10-16T06:32:52;13.00;99.90
36446;DHT22;22472;50.848;-1.216;2022-10-16T06:35:19;12.90;99.90
36446;DHT22;22472;50.848;-1.216;2022-10-16T06:37:46;12.90;99.90
36446;DHT22;22472;50.848;-1.216;2022-10-16T06:40:13;12.90;99.90
36446;DHT22;22472;50.848;-1.216;2022-10-16T06:42:41;12.80;99.90
36446;DHT22;22472;50.848;-1.216;2022-10-16T06:45:08;12.80;99.90
36446;DHT22;22472;50.848;-1.216;2022-10-16T06:47:37;12.80;99.90
36446;DHT22;22472;50.848;-1.216;2022-10-16T06:50:05;12.80;99.90
36446;DHT22;22472;50.848;-1.216;2022-10-16T06:52:33;12.70;99.90
36446;DHT22;22472;50.848;-1.216;2022-10-16T06:55:00;12.70;99.90
36446;DHT22;22472;50.848;-1.216;2022-10-16T06:57:27;12.70;99.90
36446;DHT22;22472;50.848;-1.216;2022-10-16T06:59:53;12.70;99.90
36446;DHT22;22472;50.848;-1.216;2022-10-16T07:02:20;12.70;99.90
36446;DHT22;22472;50.848;-1.216;2022-10-16T07:04:49;12.70;99.90
36446;DHT22;22472;50.848;-1.216;2022-10-16T07:07:15;12.80;99.90
36446;DHT22;22472;50.848;-1.216;2022-10-16T07:09:42;12.80;99.90
36446;DHT22;22472;50.848;-1.216;2022-10-16T07:12:09;12.80;99.90
36446;DHT22;22472;50.848;-1.216;2022-10-16T07:14:36;12.80;99.90
36446;DHT22;22472;50.848;-1.216;2022-10-16T07:17:03;12.90;99.90
36446;DHT22;22472;50.848;-1.216;2022-10-16T07:19:30;12.90;99.90
36446;DHT22;22472;50.848;-1.216;2022-10-16T07:21:59;12.90;99.90
36446;DHT22;22472;50.848;-1.216;2022-10-16T07:24:26;12.90;99.90
36446;DHT22;22472;50.848;-1.216;2022-10-16T07:26:52;12.90;99.90
36446;DHT22;22472;50.848;-1.216;2022-10-16T07:29:20;13.00;99.90
36446;DHT22;22472;50.848;-1.216;2022-10-16T07:31:48;13.10;99.90
36446;DHT22;22472;50.848;-1.216;2022-10-16T07:34:17;13.20;99.90
36446;DHT22;22472;50.848;-1.216;2022-10-16T07:36:47;13.30;99.90
36446;DHT22;22472;50.848;-1.216;2022-10-16T07:39:15;13.40;99.90
36446;DHT22;22472;50.848;-1.216;2022-10-16T07:41:42;13.40;99.90
36446;DHT22;22472;50.848;-1.216;2022-10-16T07:44:09;13.60;99.90
36446;DHT22;22472;50.848;-1.216;2022-10-16T07:46:36;13.60;99.90
36446;DHT22;22472;50.848;-1.216;2022-10-16T07:49:04;13.70;99.90
36446;DHT22;22472;50.848;-1.216;2022-10-16T07:51:30;14.00;99.90
36446;DHT22;22472;50.848;-1.216;2022-10-16T07:53:57;14.00;99.90
36446;DHT22;22472;50.848;-1.216;2022-10-16T07:56:26;14.10;99.90
36446;DHT22;22472;50.848;-1.216;2022-10-16T07:58:53;14.30;99.90
36446;DHT22;22472;50.848;-1.216;2022-10-16T08:01:21;14.30;99.90
36446;DHT22;22472;50.848;-1.216;2022-10-16T08:03:49;14.50;99.90
36446;DHT22;22472;50.848;-1.216;2022-10-16T08:06:17;14.60;99.90
36446;DHT22;22472;50.848;-1.216;2022-10-16T08:08:45;14.80;99.90
36446;DHT22;22472;50.848;-1.216;2022-10-16T08:11:11;14.90;99.90
36446;DHT22;22472;50.848;-1.216;2022-10-16T08:13:41;15.00;99.90
36446;DHT22;22472;50.848;-1.216;2022-10-16T08:16:08;15.10;99.90
36446;DHT22;22472;50.848;-1.216;2022-10-16T08:18:35;15.40;99.90
36446;DHT22;22472;50.848;-1.216;2022-10-16T08:21:04;15.50;99.90
36446;DHT22;22472;50.848;-1.216;2022-10-16T08:23:31;15.50;99.90
36446;DHT22;22472;50.848;-1.216;2022-10-16T08:26:03;15.40;99.90
36446;DHT22;22472;50.848;-1.216;2022-10-16T08:28:30;15.40;99.90
36446;DHT22;22472;50.848;-1.216;2022-10-16T08:31:06;15.60;99.90
36446;DHT22;22472;50.848;-1.216;2022-10-16T08:33:34;15.80;99.90
36446;DHT22;22472;50.848;-1.216;2022-10-16T08:36:02;15.90;99.90
36446;DHT22;22472;50.848;-1.216;2022-10-16T08:38:29;16.00;99.90
36446;DHT22;22472;50.848;-1.216;2022-10-16T08:41:07;16.10;99.90
36446;DHT22;22472;50.848;-1.216;2022-10-16T08:43:49;16.20;99.90
36446;DHT22;22472;50.848;-1.216;2022-10-16T08:46:29;16.40;99.90
36446;DHT22;22472;50.848;-1.216;2022-10-16T08:49:02;16.60;99.90
36446;DHT22;22472;50.848;-1.216;2022-10-16T08:51:31;16.80;99.90
36446;DHT22;22472;50.848;-1.216;2022-10-16T08:54:01;17.00;99.90
36446;DHT22;22472;50.848;-1.216;2022-10-16T08:56:29;17.20;99.90
36446;DHT22;22472;50.848;-1.216;2022-10-16T08:58:58;17.30;99.90
36446;DHT22;22472;50.848;-1.216;2022-10-16T09:01:37;17.50;99.90
36446;DHT22;22472;50.848;-1.216;2022-10-16T09:04:30;17.80;99.90
36446;DHT22;22472;50.848;-1.216;2022-10-16T09:07:06;18.00;99.90
36446;DHT22;22472;50.848;-1.216;2022-10-16T09:09:46;18.10;99.90
36446;DHT22;22472;50.848;-1.216;2022-10-16T09:12:20;18.10;99.90
36446;DHT22;22472;50.848;-1.216;2022-10-16T09:15:02;18.20;99.90
36446;DHT22;22472;50.848;-1.216;2022-10-16T09:17:41;18.20;99.90
36446;DHT22;22472;50.848;-1.216;2022-10-16T09:20:24;18.50;99.90
36446;DHT22;22472;50.848;-1.216;2022-10-16T09:22:56;18.70;99.90
36446;DHT22;22472;50.848;-1.216;2022-10-16T09:25:27;18.70;99.90
36446;DHT22;22472;50.848;-1.216;2022-10-16T09:27:55;18.90;99.90
36446;DHT22;22472;50.848;-1.216;2022-10-16T09:30:22;19.10;99.90
36446;DHT22;22472;50.848;-1.216;2022-10-16T09:32:54;19.30;99.90
36446;DHT22;22472;50.848;-1.216;2022-10-16T09:35:31;19.40;99.90
36446;DHT22;22472;50.848;-1.216;2022-10-16T09:37:58;19.60;99.90
36446;DHT22;22472;50.848;-1.216;2022-10-16T09:40:26;20.00;99.90
36446;DHT22;22472;50.848;-1.216;2022-10-16T09:43:03;20.10;99.90
36446;DHT22;22472;50.848;-1.216;2022-10-16T09:45:32;20.20;99.90
36446;DHT22;22472;50.848;-1.216;2022-10-16T09:48:10;20.40;99.90
36446;DHT22;22472;50.848;-1.216;2022-10-16T09:50:37;20.60;99.90
36446;DHT22;22472;50.848;-1.216;2022-10-16T09:53:08;20.80;99.90
36446;DHT22;22472;50.848;-1.216;2022-10-16T09:55:47;20.90;99.90
36446;DHT22;22472;50.848;-1.216;2022-10-16T09:58:14;20.90;99.90
36446;DHT22;22472;50.848;-1.216;2022-10-16T10:00:47;20.90;99.90
36446;DHT22;22472;50.848;-1.216;2022-10-16T10:03:35;20.70;99.90
36446;DHT22;22472;50.848;-1.216;2022-10-16T10:06:07;20.50;99.90
36446;DHT22;22472;50.848;-1.216;2022-10-16T10:08:51;20.20;99.90
36446;DHT22;22472;50.848;-1.216;2022-10-16T10:11:19;20.50;99.90
36446;DHT22;22472;50.848;-1.216;2022-10-16T10:14:06;20.80;99.90
36446;DHT22;22472;50.848;-1.216;2022-10-16T10:16:35;20.70;99.90
36446;DHT22;22472;50.848;-1.216;2022-10-16T10:19:04;20.90;99.90
36446;DHT22;22472;50.848;-1.216;2022-10-16T10:21:33;21.10;99.90
36446;DHT22;22472;50.848;-1.216;2022-10-16T10:24:00;21.40;99.90
36446;DHT22;22472;50.848;-1.216;2022-10-16T10:26:28;21.60;99.90
36446;DHT22;22472;50.848;-1.216;2022-10-16T10:29:04;21.70;99.90
36446;DHT22;22472;50.848;-1.216;2022-10-16T10:31:43;21.80;99.90
36446;DHT22;22472;50.848;-1.216;2022-10-16T10:34:26;21.80;99.90
36446;DHT22;22472;50.848;-1.216;2022-10-16T10:37:02;22.00;99.90
36446;DHT22;22472;50.848;-1.216;2022-10-16T10:39:35;22.00;99.90
36446;DHT22;22472;50.848;-1.216;2022-10-16T10:42:15;22.00;99.90
36446;DHT22;22472;50.848;-1.216;2022-10-16T10:45:02;21.90;99.90
36446;DHT22;22472;50.848;-1.216;2022-10-16T10:47:43;22.00;99.90
36446;DHT22;22472;50.848;-1.216;2022-10-16T10:50:23;21.90;99.90
36446;DHT22;22472;50.848;-1.216;2022-10-16T10:53:01;21.80;99.90
36446;DHT22;22472;50.848;-1.216;2022-10-16T10:55:39;21.80;99.90
36446;DHT22;22472;50.848;-1.216;2022-10-16T10:58:33;21.90;99.90
36446;DHT22;22472;50.848;-1.216;2022-10-16T11:01:06;21.80;99.90
36446;DHT22;22472;50.848;-1.216;2022-10-16T11:03:57;21.80;99.90
36446;DHT22;22472;50.848;-1.216;2022-10-16T11:06:30;21.60;99.90
36446;DHT22;22472;50.848;-1.216;2022-10-16T11:09:10;21.60;99.90
36446;DHT22;22472;50.848;-1.216;2022-10-16T11:11:43;21.60;99.90
36446;DHT22;22472;50.848;-1.216;2022-10-16T11:14:15;21.40;99.90
36446;DHT22;22472;50.848;-1.216;2022-10-16T11:16:45;21.30;99.90
36446;DHT22;22472;50.848;-1.216;2022-10-16T11:19:22;21.30;99.90
36446;DHT22;22472;50.848;-1.216;2022-10-16T11:21:56;21.50;99.90
36446;DHT22;22472;50.848;-1.216;2022-10-16T11:24:35;21.80;99.90
36446;DHT22;22472;50.848;-1.216;2022-10-16T11:27:09;21.90;99.90
36446;DHT22;22472;50.848;-1.216;2022-10-16T11:29:46;21.90;99.90
36446;DHT22;22472;50.848;-1.216;2022-10-16T11:32:21;22.00;99.90
36446;DHT22;22472;50.848;-1.216;2022-10-16T11:34:53;21.90;99.90
36446;DHT22;22472;50.848;-1.216;2022-10-16T11:37:27;21.70;99.90
36446;DHT22;22472;50.848;-1.216;2022-10-16T11:40:02;21.70;99.90
36446;DHT22;22472;50.848;-1.216;2022-10-16T11:42:33;21.70;99.90
36446;DHT22;22472;50.848;-1.216;2022-10-16T11:45:13;21.70;99.90
36446;DHT22;22472;50.848;-1.216;2022-10-16T11:47:51;21.80;99.90
36446;DHT22;22472;50.848;-1.216;2022-10-16T11:50:26;21.70;99.90
36446;DHT22;22472;50.848;-1.216;2022-10-16T11:53:03;21.60;99.90
36446;DHT22;22472;50.848;-1.216;2022-10-16T11:55:34;21.50;99.90
36446;DHT22;22472;50.848;-1.216;2022-10-16T11:58:04;21.30;99.90
36446;DHT22;22472;50.848;-1.216;2022-10-16T12:00:38;21.20;99.90
36446;DHT22;22472;50.848;-1.216;2022-10-16T12:03:14;21.00;99.90
36446;DHT22;22472;50.848;-1.216;2022-10-16T12:05:55;21.00;99.90
36446;DHT22;22472;50.848;-1.216;2022-10-16T12:08:27;20.90;99.90
36446;DHT22;22472;50.848;-1.216;2022-10-16T12:11:05;20.90;99.90
36446;DHT22;22472;50.848;-1.216;2022-10-16T12:13:34;20.90;99.90
36446;DHT22;22472;50.848;-1.216;2022-10-16T12:16:08;20.80;99.90
36446;DHT22;22472;50.848;-1.216;2022-10-16T12:18:46;20.80;99.90
36446;DHT22;22472;50.848;-1.216;2022-10-16T12:21:15;20.60;99.90
36446;DHT22;22472;50.848;-1.216;2022-10-16T12:23:49;20.50;99.90
36446;DHT22;22472;50.848;-1.216;2022-10-16T12:26:24;20.40;99.90
36446;DHT22;22472;50.848;-1.216;2022-10-16T12:28:52;20.30;99.90
36446;DHT22;22472;50.848;-1.216;2022-10-16T12:31:19;20.20;99.90
36446;DHT22;22472;50.848;-1.216;2022-10-16T12:33:57;20.20;99.90
36446;DHT22;22472;50.848;-1.216;2022-10-16T12:36:29;20.30;99.90
36446;DHT22;22472;50.848;-1.216;2022-10-16T12:38:58;20.20;99.90
36446;DHT22;22472;50.848;-1.216;2022-10-16T12:41:27;20.10;99.90
36446;DHT22;22472;50.848;-1.216;2022-10-16T12:43:55;20.00;99.90
36446;DHT22;22472;50.848;-1.216;2022-10-16T12:49:23;20.00;99.90
36446;DHT22;22472;50.848;-1.216;2022-10-16T12:51:56;19.90;99.90
36446;DHT22;22472;50.848;-1.216;2022-10-16T12:54:27;19.90;99.90
36446;DHT22;22472;50.848;-1.216;2022-10-16T12:57:12;20.00;99.90
36446;DHT22;22472;50.848;-1.216;2022-10-16T12:59:50;20.00;99.90
36446;DHT22;22472;50.848;-1.216;2022-10-16T13:02:37;20.00;99.90
36446;DHT22;22472;50.848;-1.216;2022-10-16T13:05:26;20.00;99.90
36446;DHT22;22472;50.848;-1.216;2022-10-16T13:08:04;20.00;99.90
36446;DHT22;22472;50.848;-1.216;2022-10-16T13:10:40;19.90;99.90
36446;DHT22;22472;50.848;-1.216;2022-10-16T13:13:38;20.00;99.90
36446;DHT22;22472;50.848;-1.216;2022-10-16T13:16:17;20.10;99.90
36446;DHT22;22472;50.848;-1.216;2022-10-16T13:18:54;20.20;99.90
36446;DHT22;22472;50.848;-1.216;2022-10-16T13:21:33;20.10;99.90
36446;DHT22;22472;50.848;-1.216;2022-10-16T13:24:11;20.00;99.90
36446;DHT22;22472;50.848;-1.216;2022-10-16T13:26:48;19.90;99.90
36446;DHT22;22472;50.848;-1.216;2022-10-16T13:29:18;19.90;99.90
36446;DHT22;22472;50.848;-1.216;2022-10-16T13:31:46;19.80;99.90
36446;DHT22;22472;50.848;-1.216;2022-10-16T13:34:17;19.70;99.90
36446;DHT22;22472;50.848;-1.216;2022-10-16T13:36:46;19.60;99.90
36446;DHT22;22472;50.848;-1.216;2022-10-16T13:39:21;19.50;99.90
36446;DHT22;22472;50.848;-1.216;2022-10-16T13:42:01;19.40;99.90
36446;DHT22;22472;50.848;-1.216;2022-10-16T13:44:35;19.20;99.90
36446;DHT22;22472;50.848;-1.216;2022-10-16T13:47:03;19.10;99.90
36446;DHT22;22472;50.848;-1.216;2022-10-16T13:49:30;19.20;99.90
36446;DHT22;22472;50.848;-1.216;2022-10-16T13:51:59;19.20;99.90
36446;DHT22;22472;50.848;-1.216;2022-10-16T13:54:27;19.20;99.90
36446;DHT22;22472;50.848;-1.216;2022-10-16T13:56:55;19.20;99.90
36446;DHT22;22472;50.848;-1.216;2022-10-16T13:59:25;19.20;99.90
36446;DHT22;22472;50.848;-1.216;2022-10-16T14:01:54;19.20;99.90
36446;DHT22;22472;50.848;-1.216;2022-10-16T14:04:22;19.10;99.90
36446;DHT22;22472;50.848;-1.216;2022-10-16T14:06:51;19.00;99.90
36446;DHT22;22472;50.848;-1.216;2022-10-16T14:09:23;18.90;99.90
36446;DHT22;22472;50.848;-1.216;2022-10-16T14:11:52;18.80;99.90
36446;DHT22;22472;50.848;-1.216;2022-10-16T14:14:20;18.60;99.90
36446;DHT22;22472;50.848;-1.216;2022-10-16T14:16:49;18.50;99.90
36446;DHT22;22472;50.848;-1.216;2022-10-16T14:19:20;18.50;99.90
36446;DHT22;22472;50.848;-1.216;2022-10-16T14:21:49;18.50;99.90
36446;DHT22;22472;50.848;-1.216;2022-10-16T14:24:26;18.50;99.90
36446;DHT22;22472;50.848;-1.216;2022-10-16T14:26:53;18.60;99.90
36446;DHT22;22472;50.848;-1.216;2022-10-16T14:29:23;18.70;99.90
36446;DHT22;22472;50.848;-1.216;2022-10-16T14:31:59;18.70;99.90
36446;DHT22;22472;50.848;-1.216;2022-10-16T14:34:29;18.70;99.90
36446;DHT22;22472;50.848;-1.216;2022-10-16T14:36:59;18.60;99.90
36446;DHT22;22472;50.848;-1.216;2022-10-16T14:39:30;18.50;99.90
36446;DHT22;22472;50.848;-1.216;2022-10-16T14:41:58;18.40;99.90
36446;DHT22;22472;50.848;-1.216;2022-10-16T14:44:29;18.30;99.90
36446;DHT22;22472;50.848;-1.216;2022-10-16T14:47:07;18.20;99.90
36446;DHT22;22472;50.848;-1.216;2022-10-16T14:49:35;18.10;99.90
36446;DHT22;22472;50.848;-1.216;2022-10-16T14:52:08;18.00;99.90
36446;DHT22;22472;50.848;-1.216;2022-10-16T14:54:36;17.90;99.90
36446;DHT22;22472;50.848;-1.216;2022-10-16T14:57:03;17.90;99.90
36446;DHT22;22472;50.848;-1.216;2022-10-16T14:59:33;17.90;99.90
36446;DHT22;22472;50.848;-1.216;2022-10-16T15:02:18;17.90;99.90
36446;DHT22;22472;50.848;-1.216;2022-10-16T15:04:45;17.90;99.90
36446;DHT22;22472;50.848;-1.216;2022-10-16T15:07:12;17.90;99.90
36446;DHT22;22472;50.848;-1.216;2022-10-16T15:09:39;17.80;99.90
36446;DHT22;22472;50.848;-1.216;2022-10-16T15:12:06;17.70;99.90
36446;DHT22;22472;50.848;-1.216;2022-10-16T15:14:33;17.60;99.90
36446;DHT22;22472;50.848;-1.216;2022-10-16T15:17:00;17.50;99.90
36446;DHT22;22472;50.848;-1.216;2022-10-16T15:19:28;17.40;99.90
36446;DHT22;22472;50.848;-1.216;2022-10-16T15:21:55;17.40;99.90
36446;DHT22;22472;50.848;-1.216;2022-10-16T15:24:23;17.40;99.90
36446;DHT22;22472;50.848;-1.216;2022-10-16T15:26:50;17.40;99.90
36446;DHT22;22472;50.848;-1.216;2022-10-16T15:29:16;17.40;99.90
36446;DHT22;22472;50.848;-1.216;2022-10-16T15:31:43;17.30;99.90
36446;DHT22;22472;50.848;-1.216;2022-10-16T15:34:13;17.20;99.90
36446;DHT22;22472;50.848;-1.216;2022-10-16T15:36:41;17.20;99.90
36446;DHT22;22472;50.848;-1.216;2022-10-16T15:39:12;17.20;99.90